Nassau, Bahamas

10:25 AM EDT on August 30, 2015 (GMT -0400)
Nassau International | | Change Station
CLOSE
Current Station
Airport
Location: Nassau,
Elevation: 23 ft
Nearby Weather Stations

Elev 23 ft 25.04 °N, 77.47 °W | Updated 25 minutes ago

Mostly Cloudy
Mostly Cloudy
82 °F
Feels Like 90 °F
N
4
Wind Variable Wind from SSE

Today
High -- | Low -- °F
--% Chance of Precip.
Yesterday
High -- | Low -- °F
Precip. -- in
6:49 AM 7:30 PM
Full, 99% visible
Pressure 30.07 in
Visibility 6.2 miles
Clouds Few 1200 ft
Scattered Clouds 1700 ft
Mostly Cloudy 22000 ft
Heat Index 90 °F
Dew Point 75 °F
Humidity 79%
Rainfall 0.00 in
Snow Depth Not available.
UV 4 out of 12
Pollen Not available.
Air Quality Not available.
Flu Activity Not available.
METAR MYNN 301400Z 16003KT 9999 FEW012CB SCT017TCU BKN220 28/24 A3007
Pressure 30.07 in
Visibility 6.2 miles
Clouds Few 1200 ft
Scattered Clouds 1700 ft
Mostly Cloudy 22000 ft
Heat Index 90 °F
Dew Point 75 °F
Humidity 79%
Rainfall 0.00 in
Snow Depth Not available.
UV 4 out of 12
Pollen Not available.
Air Quality Not available.
Flu Activity Not available.
METAR MYNN 301400Z 16003KT 9999 FEW012CB SCT017TCU BKN220 28/24 A3007

10-Day Weather Forecast

×

Almanac

Astronomy

Aug. 30, 2015 Rise Set
Actual Time
Civil Twilight
Nautical Twilight
Astronomical Twilight
Moon
Length of Visible Light
Length of Day
Tomorrow will be .
, % of the Moon is Illuminated

Today's Extremes

Country Highs Country Lows

Community

WunderPhotos

Upload Photos

1,850,974 photos uploaded!

WunderBlogs® & News

Nearby

Air Quality

  Air Quality AQ Index Pollutant
Not available.

Snow Depth

Station Depth Elevation

Earthquake Activity

City Distance Mag. Time & Date
Minimum magnitude displayed is 2.5.

Coastal Water Temperatures

Place Temperature

Stations

Nearby Weather Stations

Station Location Temp. Windchill Dew Point Humidity Wind Precip. Elev Updated Type